Time;durP1;ratioP1;P1;durP2;ratioP2;P2;SDS_P1;SDS_P2;PMS_P1;PMS_P2;Temp;Humidity;BMP_temperature;BMP_pressure;BME280_temperature;BME280_humidity;BME280_pressure;Samples;Min_cycle;Max_cycle;Signal;HPM_P1;HPM_P2
2022/01/09 00:01:29;;;;;;;3.93;3.20;;;;;;;-0.47;100.00;94753.91;5076523;27;103023;-59
2022/01/09 00:03:56;;;;;;;5.27;3.80;;;;;;;-0.45;100.00;94744.03;5071999;27;101970;-58
2022/01/09 00:06:23;;;;;;;4.33;3.37;;;;;;;-0.51;100.00;94734.50;5071768;27;106594;-59
2022/01/09 00:08:52;;;;;;;3.57;3.10;;;;;;;-0.54;100.00;94726.31;5071167;27;105988;-58
2022/01/09 00:11:26;;;;;;;5.83;3.27;;;;;;;-0.39;100.00;94721.47;5071948;27;101786;-58
2022/01/09 00:13:53;;;;;;;3.57;2.97;;;;;;;-0.42;100.00;94717.50;5071826;27;105477;-58
2022/01/09 00:16:21;;;;;;;4.83;3.33;;;;;;;-0.45;100.00;94709.31;5071216;27;106801;-59
2022/01/09 00:18:48;;;;;;;4.23;3.20;;;;;;;-0.45;100.00;94699.66;5071631;27;102139;-58
2022/01/09 00:21:15;;;;;;;4.90;3.17;;;;;;;-0.38;100.00;94698.53;5071804;27;105194;-59
2022/01/09 00:23:45;;;;;;;5.93;4.50;;;;;;;-0.35;100.00;94697.28;5074630;27;105379;-58
2022/01/09 00:26:13;;;;;;;5.97;4.00;;;;;;;-0.38;100.00;94696.97;5071409;27;105489;-59
2022/01/09 00:28:41;;;;;;;5.90;3.80;;;;;;;-0.42;100.00;94694.78;5070767;27;105551;-59
2022/01/09 00:31:08;;;;;;;6.50;3.77;;;;;;;-0.47;100.00;94684.22;5071775;27;102080;-59
2022/01/09 00:33:35;;;;;;;4.73;3.77;;;;;;;-0.55;100.00;94683.72;5071568;27;105380;-58
2022/01/09 00:36:02;;;;;;;5.80;4.40;;;;;;;-0.48;100.00;94673.22;5072271;27;103162;-58
2022/01/09 00:38:29;;;;;;;6.03;4.47;;;;;;;-0.49;100.00;94671.63;5070866;27;102038;-58
2022/01/09 00:40:56;;;;;;;5.77;4.07;;;;;;;-0.44;100.00;94666.53;5072883;27;102699;-58
2022/01/09 00:43:24;;;;;;;8.20;5.10;;;;;;;-0.44;100.00;94659.47;5070656;27;105418;-58
2022/01/09 00:45:51;;;;;;;4.47;3.70;;;;;;;-0.42;100.00;94660.06;5074761;27;101948;-58
2022/01/09 00:48:18;;;;;;;7.43;4.57;;;;;;;-0.32;100.00;94653.25;5072168;27;103209;-59
2022/01/09 00:50:45;;;;;;;4.67;3.33;;;;;;;-0.32;100.00;94648.03;5071436;27;101840;-58
2022/01/09 00:53:11;;;;;;;6.20;4.13;;;;;;;-0.20;100.00;94648.06;5071240;27;105250;-58
2022/01/09 00:55:39;;;;;;;6.27;3.87;;;;;;;-0.19;100.00;94644.41;5070561;27;105056;-58
2022/01/09 00:58:08;;;;;;;4.30;3.67;;;;;;;-0.13;100.00;94633.84;5070790;27;102077;-58
2022/01/09 01:00:39;;;;;;;4.60;3.50;;;;;;;-0.11;100.00;94631.00;5070552;27;105644;-59
2022/01/09 01:03:06;;;;;;;4.43;3.87;;;;;;;-0.14;100.00;94621.03;5070631;27;104150;-59
2022/01/09 01:05:33;;;;;;;4.90;4.10;;;;;;;-0.16;100.00;94630.91;5074521;27;101839;-58
2022/01/09 01:08:01;;;;;;;6.57;3.93;;;;;;;-0.08;100.00;94620.09;5070331;27;105368;-58
2022/01/09 01:10:27;;;;;;;4.67;3.63;;;;;;;-0.03;100.00;94630.66;5070894;27;101819;-58
2022/01/09 01:12:54;;;;;;;6.40;4.40;;;;;;;0.02;100.00;94631.56;5070816;27;105228;-59
2022/01/09 01:15:21;;;;;;;5.93;4.40;;;;;;;-0.25;100.00;94627.03;5070232;27;106692;-58
2022/01/09 01:17:50;;;;;;;5.33;4.13;;;;;;;-0.32;100.00;94625.56;5072065;27;101847;-59
2022/01/09 01:20:20;;;;;;;5.60;4.30;;;;;;;-0.40;100.00;94612.84;5070978;27;106072;-58
2022/01/09 01:22:49;;;;;;;5.80;4.27;;;;;;;-0.39;100.00;94622.25;5070151;27;105800;-59
2022/01/09 01:25:16;;;;;;;5.43;4.40;;;;;;;-0.38;100.00;94619.44;5070736;27;102231;-58
2022/01/09 01:27:43;;;;;;;5.97;4.60;;;;;;;-0.38;100.00;94618.63;5073465;27;104961;-59
2022/01/09 01:30:12;;;;;;;6.77;4.70;;;;;;;-0.38;100.00;94621.25;5070714;27;101966;-58
2022/01/09 01:32:39;;;;;;;7.63;4.97;;;;;;;-0.41;100.00;94609.44;5070305;27;105004;-59
2022/01/09 01:35:09;;;;;;;6.23;4.67;;;;;;;-0.41;100.00;94617.25;5070012;27;105157;-58
2022/01/09 01:37:41;;;;;;;5.83;4.97;;;;;;;-0.34;100.00;94614.56;5070172;27;102013;-59
2022/01/09 01:40:11;;;;;;;6.00;4.27;;;;;;;-0.30;100.00;94603.41;5070624;27;106410;-59
2022/01/09 01:42:38;;;;;;;7.37;4.80;;;;;;;-0.27;100.00;94600.38;5069859;27;105778;-58
2022/01/09 01:45:07;;;;;;;6.97;5.47;;;;;;;-0.24;100.00;94612.97;5070354;27;102367;-59
2022/01/09 01:47:33;;;;;;;5.37;4.87;;;;;;;-0.21;100.00;94602.06;5070293;27;104894;-58
2022/01/09 01:50:01;;;;;;;7.23;5.50;;;;;;;-0.17;100.00;94597.97;5073235;27;104952;-58
2022/01/09 01:52:34;;;;;;;6.00;5.17;;;;;;;-0.18;100.00;94593.75;5070309;27;105240;-58
2022/01/09 01:55:01;;;;;;;5.77;4.17;;;;;;;-0.05;100.00;94586.47;5069742;27;105547;-58
2022/01/09 01:57:30;;;;;;;5.93;4.73;;;;;;;0.03;100.00;94573.09;5069961;27;101936;-59
2022/01/09 01:59:57;;;;;;;4.80;4.23;;;;;;;0.07;100.00;94600.31;5070317;27;105244;-59
2022/01/09 02:02:25;;;;;;;7.70;4.37;;;;;;;0.13;100.00;94616.91;5069600;27;105571;-58
2022/01/09 02:04:52;;;;;;;7.07;4.63;;;;;;;0.04;100.00;94594.75;5070111;27;101766;-59
2022/01/09 02:07:20;;;;;;;4.23;3.80;;;;;;;0.06;100.00;94598.75;5069864;27;105763;-59
2022/01/09 02:09:49;;;;;;;5.50;4.30;;;;;;;0.16;100.00;94598.16;5070986;27;102748;-59
2022/01/09 02:12:18;;;;;;;5.07;4.20;;;;;;;0.22;100.00;94594.66;5073995;27;101789;-58
2022/01/09 02:14:47;;;;;;;4.70;4.13;;;;;;;0.23;100.00;94610.06;5069284;27;105061;-59
2022/01/09 02:17:18;;;;;;;4.17;3.70;;;;;;;0.32;100.00;94602.66;5070971;27;101860;-58
2022/01/09 02:19:53;;;;;;;4.30;3.40;;;;;;;0.46;100.00;94596.97;5069951;27;105523;-58
2022/01/09 02:22:20;;;;;;;5.77;4.20;;;;;;;0.52;100.00;94587.41;5069259;27;105020;-59
2022/01/09 02:24:47;;;;;;;3.03;2.77;;;;;;;0.66;100.00;94593.97;5069830;27;101912;-57
2022/01/09 02:27:15;;;;;;;4.50;3.30;;;;;;;0.81;100.00;94595.03;5069402;27;105246;-59
2022/01/09 02:29:42;;;;;;;4.77;3.47;;;;;;;0.83;100.00;94613.09;5068992;27;104244;-56
2022/01/09 02:32:09;;;;;;;3.57;2.50;;;;;;;0.97;100.00;94609.16;5069797;27;101889;-58
2022/01/09 02:34:35;;;;;;;2.50;2.30;;;;;;;1.09;100.00;94595.00;5072554;27;104730;-58
2022/01/09 02:37:04;;;;;;;3.00;2.50;;;;;;;1.25;100.00;94607.31;5070746;27;101833;-58
2022/01/09 02:39:31;;;;;;;4.73;2.60;;;;;;;1.51;100.00;94604.09;5069547;27;105534;-58
2022/01/09 02:41:58;;;;;;;3.47;2.20;;;;;;;1.67;100.00;94602.50;5068731;27;105227;-59
2022/01/09 02:44:25;;;;;;;3.33;2.30;;;;;;;1.72;100.00;94602.59;5069074;27;101807;-58
2022/01/09 02:47:01;;;;;;;4.40;2.70;;;;;;;1.79;100.00;94608.44;5069487;27;106027;-59
2022/01/09 02:49:29;;;;;;;1.60;1.50;;;;;;;1.82;100.00;94610.59;5068921;27;104271;-59
2022/01/09 02:51:58;;;;;;;1.63;1.50;;;;;;;1.85;100.00;94604.88;5069226;27;101847;-59
2022/01/09 02:57:10;;;;;;;1.07;0.97;;;;;;;1.96;100.00;94603.97;5071946;27;104106;-59
2022/01/09 02:59:38;;;;;;;1.00;1.00;;;;;;;1.95;100.00;94599.78;5069351;27;105506;-57
2022/01/09 03:02:06;;;;;;;1.20;1.10;;;;;;;1.92;100.00;94597.66;5068861;27;105055;-59
2022/01/09 03:04:33;;;;;;;1.23;1.10;;;;;;;1.89;100.00;94592.88;5069153;27;102078;-59
2022/01/09 03:07:00;;;;;;;1.70;1.20;;;;;;;1.82;100.00;94587.03;5069279;27;105509;-58
2022/01/09 03:09:30;;;;;;;1.00;1.00;;;;;;;1.77;100.00;94586.94;5068774;27;105016;-58
2022/01/09 03:11:57;;;;;;;1.40;1.30;;;;;;;1.77;100.00;94581.69;5069349;27;101949;-58
2022/01/09 03:14:24;;;;;;;1.57;1.47;;;;;;;1.75;100.00;94571.44;5069072;27;105283;-58
2022/01/09 03:16:50;;;;;;;1.57;1.47;;;;;;;1.66;100.00;94564.25;5072008;27;104077;-58
2022/01/09 03:19:17;;;;;;;1.80;1.70;;;;;;;1.58;100.00;94557.59;5069362;27;105137;-59
2022/01/09 03:21:44;;;;;;;1.50;1.40;;;;;;;1.56;100.00;94559.66;5068545;27;105457;-59
2022/01/09 03:24:11;;;;;;;1.50;1.40;;;;;;;1.56;100.00;94554.41;5072199;27;102035;-58
2022/01/09 03:26:40;;;;;;;1.50;1.40;;;;;;;1.42;100.00;94541.91;5072367;27;105509;-58
2022/01/09 03:29:07;;;;;;;2.00;1.20;;;;;;;1.44;100.00;94535.38;5072108;27;104111;-58
2022/01/09 03:31:34;;;;;;;2.30;1.73;;;;;;;1.44;100.00;94524.09;5072654;27;101800;-58
2022/01/09 03:34:01;;;;;;;1.23;1.23;;;;;;;1.53;100.00;94520.84;5072666;27;105511;-58
2022/01/09 03:36:28;;;;;;;1.50;1.40;;;;;;;1.56;100.00;94512.50;5071750;27;104194;-57
2022/01/09 03:38:56;;;;;;;1.70;1.60;;;;;;;1.46;100.00;94495.84;5075900;27;101937;-58
2022/01/09 03:41:23;;;;;;;1.63;1.50;;;;;;;1.37;100.00;94498.06;5071949;27;105358;-58
2022/01/09 03:43:51;;;;;;;1.17;1.17;;;;;;;1.33;100.00;94490.94;5072424;27;102351;-59
2022/01/09 03:46:18;;;;;;;1.47;1.37;;;;;;;1.37;100.00;94484.22;5072325;27;105515;-58
2022/01/09 03:48:45;;;;;;;1.60;1.50;;;;;;;1.33;100.00;94488.34;5071477;27;106404;-58
2022/01/09 03:51:12;;;;;;;1.53;1.43;;;;;;;1.29;100.00;94493.25;5072387;27;101835;-58
2022/01/09 03:53:40;;;;;;;1.70;1.60;;;;;;;1.36;100.00;94475.56;5072232;27;105473;-59
2022/01/09 03:56:08;;;;;;;1.80;1.70;;;;;;;1.36;100.00;94475.56;5071193;27;106778;-58
2022/01/09 03:58:36;;;;;;;1.33;1.30;;;;;;;1.32;100.00;94474.44;5072013;27;101826;-58
2022/01/09 04:01:06;;;;;;;2.17;1.60;;;;;;;1.31;100.00;94474.69;5076585;27;102598;-58
2022/01/09 04:03:33;;;;;;;1.77;1.60;;;;;;;1.39;100.00;94471.66;5072222;27;101808;-59
2022/01/09 04:06:01;;;;;;;1.40;1.30;;;;;;;1.47;100.00;94464.19;5072113;27;103651;-59
2022/01/09 04:08:28;;;;;;;1.83;1.70;;;;;;;1.52;100.00;94455.59;5071297;27;105228;-58
2022/01/09 04:10:56;;;;;;;2.00;1.80;;;;;;;1.51;100.00;94467.13;5073457;27;102035;-57
2022/01/09 04:13:23;;;;;;;1.60;1.50;;;;;;;1.48;100.00;94459.75;5073279;27;102524;-59
2022/01/09 04:15:50;;;;;;;1.60;1.50;;;;;;;1.35;100.00;94467.94;5071311;27;104228;-57
2022/01/09 04:18:22;;;;;;;1.90;1.80;;;;;;;1.34;100.00;94464.53;5071802;27;101868;-58
2022/01/09 04:20:49;;;;;;;2.50;1.47;;;;;;;1.15;100.00;94463.19;5072009;27;105648;-57
2022/01/09 04:23:17;;;;;;;1.70;1.60;;;;;;;1.27;100.00;94465.72;5074926;27;105449;-59
2022/01/09 04:25:45;;;;;;;1.70;1.60;;;;;;;1.28;100.00;94473.34;5071441;27;104878;-59
2022/01/09 04:28:14;;;;;;;1.37;1.33;;;;;;;1.34;100.00;94482.06;5071070;27;104990;-58
2022/01/09 04:30:41;;;;;;;1.70;1.60;;;;;;;1.35;100.00;94488.88;5071823;27;101787;-58
2022/01/09 04:33:09;;;;;;;1.73;1.63;;;;;;;1.37;100.00;94486.84;5071713;27;105102;-58
2022/01/09 04:35:37;;;;;;;1.83;1.50;;;;;;;1.31;100.00;94498.25;5070059;27;105165;-58
2022/01/09 04:38:05;;;;;;;1.03;1.03;;;;;;;1.36;100.00;94503.53;5070866;27;101823;-58
2022/01/09 04:40:32;;;;;;;1.17;1.07;;;;;;;1.71;100.00;94514.56;5072944;27;102327;-59
2022/01/09 04:43:02;;;;;;;1.73;0.90;;;;;;;2.21;100.00;94517.81;5072219;27;103112;-58
2022/01/09 04:45:29;;;;;;;1.00;1.00;;;;;;;2.24;100.00;94533.84;5076303;27;101958;-59
2022/01/09 04:48:01;;;;;;;0.90;0.90;;;;;;;2.20;100.00;94539.84;5071973;27;102588;-58
2022/01/09 04:50:31;;;;;;;1.03;1.00;;;;;;;2.29;100.00;94539.16;5073059;27;101929;-59
2022/01/09 04:53:05;;;;;;;1.20;1.00;;;;;;;2.29;100.00;94533.91;5072898;27;102594;-59
2022/01/09 04:55:33;;;;;;;2.70;0.93;;;;;;;2.36;100.00;94528.50;5072317;27;102838;-58
2022/01/09 04:58:00;;;;;;;1.10;1.10;;;;;;;2.37;100.00;94523.00;5072419;27;101841;-57
2022/01/09 05:00:28;;;;;;;0.90;0.90;;;;;;;2.51;100.00;94537.31;5071302;27;105141;-58
2022/01/09 05:02:55;;;;;;;0.73;0.73;;;;;;;2.57;100.00;94525.06;5070423;27;105081;-58
2022/01/09 05:05:23;;;;;;;0.93;0.80;;;;;;;2.64;100.00;94531.72;5071162;27;101849;-58
2022/01/09 05:07:50;;;;;;;0.80;0.80;;;;;;;2.64;100.00;94530.91;5073843;27;104894;-59
2022/01/09 05:10:20;;;;;;;0.87;0.87;;;;;;;2.69;100.00;94525.72;5070825;27;101927;-58
2022/01/09 05:12:47;;;;;;;0.90;0.90;;;;;;;2.72;100.00;94525.22;5071244;27;105632;-57
2022/01/09 05:15:16;;;;;;;0.80;0.80;;;;;;;2.71;100.00;94523.63;5070239;27;105538;-58
2022/01/09 05:17:43;;;;;;;1.03;0.93;;;;;;;2.68;100.00;94521.50;5071138;27;102053;-58
2022/01/09 05:20:10;;;;;;;1.27;0.80;;;;;;;2.65;100.00;94533.28;5070993;27;105326;-59
2022/01/09 05:22:38;;;;;;;0.80;0.80;;;;;;;2.61;100.00;94524.31;5070052;27;105251;-58
2022/01/09 05:25:07;;;;;;;0.90;0.90;;;;;;;2.56;100.00;94529.50;5070973;27;101824;-58
2022/01/09 05:27:37;;;;;;;0.90;0.90;;;;;;;2.52;100.00;94540.75;5073785;27;105801;-58
2022/01/09 05:30:05;;;;;;;1.10;1.00;;;;;;;2.49;100.00;94541.22;5070711;27;101855;-58
2022/01/09 05:32:32;;;;;;;1.00;1.00;;;;;;;2.49;100.00;94546.47;5070811;27;105220;-58
2022/01/09 05:34:59;;;;;;;1.20;1.10;;;;;;;2.44;100.00;94555.09;5069944;27;104418;-58
2022/01/09 05:37:26;;;;;;;0.90;0.90;;;;;;;2.45;100.00;94553.25;5070120;27;102110;-55
2022/01/09 05:39:54;;;;;;;2.10;1.13;;;;;;;2.41;100.00;94552.16;5070693;27;104412;-56
2022/01/09 05:42:22;;;;;;;2.83;1.80;;;;;;;2.40;100.00;94559.22;5069994;27;105339;-56
2022/01/09 05:44:51;;;;;;;2.93;2.30;;;;;;;2.35;100.00;94574.13;5070530;27;101855;-56
2022/01/09 05:47:17;;;;;;;1.23;1.10;;;;;;;2.42;100.00;94570.28;5069128;27;105278;-56
2022/01/09 05:49:44;;;;;;;1.83;1.50;;;;;;;2.39;100.00;94575.19;5073366;27;105051;-56
2022/01/09 05:52:11;;;;;;;2.10;1.27;;;;;;;2.31;100.00;94578.25;5070541;27;103661;-56
2022/01/09 05:54:38;;;;;;;1.53;1.30;;;;;;;2.20;100.00;94566.06;5069387;27;105802;-56
2022/01/09 05:57:05;;;;;;;1.30;1.20;;;;;;;2.18;100.00;94589.13;5070138;27;101954;-56
2022/01/09 05:59:32;;;;;;;1.73;1.20;;;;;;;2.12;100.00;94579.56;5070354;27;105163;-56
2022/01/09 06:02:00;;;;;;;1.30;1.20;;;;;;;2.06;100.00;94591.03;5069700;27;105335;-56
2022/01/09 06:04:28;;;;;;;1.50;1.30;;;;;;;2.07;100.00;94582.16;5070054;27;101876;-55
2022/01/09 06:06:56;;;;;;;1.87;1.40;;;;;;;2.03;100.00;94599.38;5071459;27;102413;-56
2022/01/09 06:09:24;;;;;;;2.20;1.60;;;;;;;2.07;100.00;94595.25;5069464;27;105145;-56
2022/01/09 06:11:51;;;;;;;2.33;1.83;;;;;;;2.09;100.00;94598.41;5073642;27;102403;-55
2022/01/09 06:14:18;;;;;;;1.80;1.70;;;;;;;2.05;100.00;94605.16;5069253;27;105185;-56
2022/01/09 06:16:45;;;;;;;4.07;1.23;;;;;;;2.05;100.00;94607.78;5069928;27;101877;-56
2022/01/09 06:19:14;;;;;;;1.40;1.30;;;;;;;2.14;100.00;94608.97;5070023;27;105111;-56
2022/01/09 06:21:41;;;;;;;2.50;1.60;;;;;;;2.22;100.00;94605.94;5069113;27;106334;-56
2022/01/09 06:24:08;;;;;;;1.60;1.50;;;;;;;2.22;100.00;94626.91;5069951;27;101826;-56
2022/01/09 06:26:35;;;;;;;1.30;1.20;;;;;;;2.23;100.00;94626.66;5069754;27;105133;-56
2022/01/09 06:29:02;;;;;;;1.40;1.30;;;;;;;2.21;100.00;94626.13;5068977;27;105845;-55
2022/01/09 06:31:29;;;;;;;2.27;1.47;;;;;;;2.26;100.00;94613.09;5069688;27;101750;-56
2022/01/09 06:33:55;;;;;;;1.53;1.30;;;;;;;2.30;100.00;94639.63;5072682;27;103799;-55
2022/01/09 06:36:23;;;;;;;1.00;0.90;;;;;;;2.38;100.00;94637.38;5069536;27;101848;-56
2022/01/09 06:38:50;;;;;;;1.13;1.00;;;;;;;2.36;100.00;94626.31;5069381;27;105147;-55
2022/01/09 06:41:17;;;;;;;1.10;1.10;;;;;;;2.40;100.00;94608.28;5069191;27;105622;-55
2022/01/09 06:43:44;;;;;;;0.80;0.80;;;;;;;2.52;100.00;94598.47;5069457;27;101974;-55
2022/01/09 06:46:13;;;;;;;1.37;1.03;;;;;;;2.52;100.00;94627.31;5069400;27;105077;-56
2022/01/09 06:48:41;;;;;;;1.90;1.10;;;;;;;2.46;100.00;94629.06;5070417;27;103149;-56
2022/01/09 06:51:10;;;;;;;1.17;1.10;;;;;;;2.74;100.00;94636.75;5067771;27;101960;-56
2022/01/09 06:53:39;;;;;;;1.20;1.00;;;;;;;2.75;100.00;94627.06;5069639;27;105110;-56
2022/01/09 06:56:06;;;;;;;3.13;1.10;;;;;;;2.74;100.00;94641.22;5071810;27;105664;-55
2022/01/09 06:58:33;;;;;;;1.20;1.10;;;;;;;2.67;100.00;94646.66;5069090;27;104875;-56
2022/01/09 07:01:00;;;;;;;1.03;1.03;;;;;;;2.62;100.00;94643.97;5070198;27;104395;-56
2022/01/09 07:03:27;;;;;;;1.37;1.27;;;;;;;2.56;100.00;94660.69;5069292;27;101930;-56
2022/01/09 07:05:54;;;;;;;1.40;1.30;;;;;;;2.60;100.00;94660.97;5070579;27;102857;-56
2022/01/09 07:08:21;;;;;;;1.37;1.27;;;;;;;2.67;100.00;94645.88;5068423;27;105818;-56
2022/01/09 07:10:50;;;;;;;1.43;1.33;;;;;;;2.66;100.00;94657.38;5069394;27;101781;-56
2022/01/09 07:13:17;;;;;;;3.37;2.60;;;;;;;3.16;100.00;94661.41;5069207;27;105761;-56
2022/01/09 07:15:44;;;;;;;2.80;2.10;;;;;;;3.30;100.00;94661.81;5068767;27;105765;-56
2022/01/09 07:18:11;;;;;;;1.40;1.20;;;;;;;3.69;100.00;94666.69;5072594;27;101762;-56
2022/01/09 07:20:38;;;;;;;1.73;1.63;;;;;;;4.12;100.00;94656.00;5068316;27;105175;-56
2022/01/09 07:23:05;;;;;;;2.20;2.10;;;;;;;4.68;100.00;94665.81;5069095;27;101824;-56
2022/01/09 07:25:32;;;;;;;1.33;1.23;;;;;;;4.87;100.00;94659.06;5068906;27;105505;-56
2022/01/09 07:28:02;;;;;;;0.50;0.50;;;;;;;5.13;100.00;94668.63;5069850;27;102630;-56
2022/01/09 07:30:29;;;;;;;2.13;0.87;;;;;;;5.37;100.00;94676.88;5068888;27;101896;-56
2022/01/09 07:32:56;;;;;;;0.40;0.40;;;;;;;5.65;100.00;94681.69;5068997;27;104164;-56
2022/01/09 07:35:25;;;;;;;0.40;0.40;;;;;;;5.60;100.00;94694.88;5068139;27;106594;-56
2022/01/09 07:37:53;;;;;;;0.40;0.40;;;;;;;5.58;100.00;94760.25;5071950;27;101963;-55
2022/01/09 07:40:20;;;;;;;0.50;0.50;;;;;;;5.59;100.00;94717.00;5068221;27;105246;-56
2022/01/09 07:42:47;;;;;;;1.17;0.30;;;;;;;5.47;100.00;94756.00;5068863;27;102074;-56
2022/01/09 07:45:17;;;;;;;0.40;0.40;;;;;;;5.35;100.00;94740.38;5068795;27;105053;-56
2022/01/09 07:47:44;;;;;;;0.30;0.20;;;;;;;5.31;100.00;94746.44;5069382;27;102863;-56
2022/01/09 07:50:12;;;;;;;0.50;0.40;;;;;;;5.22;100.00;94761.16;5070199;27;101827;-56
2022/01/09 07:52:39;;;;;;;0.50;0.50;;;;;;;5.10;100.00;94789.53;5068558;27;104780;-56
2022/01/09 07:55:08;;;;;;;0.30;0.30;;;;;;;4.91;100.00;94775.22;5068260;27;105720;-56
2022/01/09 07:57:35;;;;;;;0.37;0.37;;;;;;;4.82;100.00;94782.00;5068432;27;101957;-56
2022/01/09 08:00:03;;;;;;;0.20;0.20;;;;;;;4.67;100.00;94776.63;5071446;27;105102;-55
2022/01/09 08:02:41;;;;;;;0.40;0.40;;;;;;;4.54;100.00;94812.03;5066708;27;101741;-56
2022/01/09 08:05:10;;;;;;;0.40;0.40;;;;;;;4.40;100.00;94796.94;5069946;27;102250;-54
2022/01/09 08:07:37;;;;;;;0.40;0.40;;;;;;;4.30;100.00;94808.16;5069336;27;102721;-56
2022/01/09 08:10:05;;;;;;;0.30;0.30;;;;;;;4.24;100.00;94797.84;5071487;27;101725;-56
2022/01/09 08:12:33;;;;;;;0.50;0.50;;;;;;;4.19;100.00;94803.84;5072145;27;104821;-56
2022/01/09 08:14:59;;;;;;;0.37;0.37;;;;;;;4.15;100.00;94830.91;5071480;27;105394;-56
2022/01/09 08:17:28;;;;;;;0.40;0.40;;;;;;;4.07;100.00;94820.81;5071749;27;102159;-56
2022/01/09 08:19:57;;;;;;;0.83;0.40;;;;;;;4.05;100.00;94822.91;5071899;27;104920;-56
2022/01/09 08:22:28;;;;;;;0.40;0.40;;;;;;;4.03;100.00;94819.72;5074680;27;105406;-55
2022/01/09 08:24:57;;;;;;;0.40;0.40;;;;;;;3.99;100.00;94827.31;5071639;27;105972;-57
2022/01/09 08:27:23;;;;;;;0.60;0.60;;;;;;;4.00;100.00;94833.38;5070861;27;106741;-57
2022/01/09 08:29:50;;;;;;;0.40;0.40;;;;;;;4.03;100.00;94840.75;5071796;27;102033;-57
2022/01/09 08:32:17;;;;;;;0.27;0.27;;;;;;;4.06;100.00;94840.28;5071486;27;105270;-57
2022/01/09 08:34:45;;;;;;;0.40;0.40;;;;;;;4.12;100.00;94849.81;5070909;27;105714;-57
2022/01/09 08:37:14;;;;;;;0.40;0.40;;;;;;;4.12;100.00;94855.88;5071179;27;101878;-57
2022/01/09 08:39:44;;;;;;;0.87;0.50;;;;;;;4.18;100.00;94864.59;5071666;27;104945;-57
2022/01/09 08:42:11;;;;;;;0.40;0.40;;;;;;;4.18;100.00;94857.50;5070716;27;106418;-57
2022/01/09 08:44:39;;;;;;;0.40;0.40;;;;;;;4.22;100.00;94861.25;5074902;27;101843;-57
2022/01/09 08:47:06;;;;;;;0.40;0.40;;;;;;;4.28;100.00;94869.97;5070722;27;105684;-57
2022/01/09 08:49:35;;;;;;;1.43;0.50;;;;;;;4.26;100.00;94878.09;5071043;27;101890;-57
2022/01/09 08:52:02;;;;;;;0.40;0.40;;;;;;;4.33;100.00;94898.97;5071455;27;104032;-57
2022/01/09 08:54:32;;;;;;;0.40;0.40;;;;;;;4.31;100.00;94890.53;5070806;27;105045;-57
2022/01/09 08:57:00;;;;;;;0.40;0.40;;;;;;;4.29;100.00;94890.78;5071356;27;102093;-57
2022/01/09 08:59:28;;;;;;;0.40;0.40;;;;;;;4.36;100.00;94903.75;5071153;27;106087;-57
2022/01/09 09:01:57;;;;;;;0.87;0.60;;;;;;;4.39;100.00;94890.88;5070398;27;105377;-57
2022/01/09 09:04:24;;;;;;;0.70;0.70;;;;;;;4.37;100.00;94905.34;5070896;27;101946;-57
2022/01/09 09:06:52;;;;;;;0.57;0.57;;;;;;;4.39;100.00;94925.09;5073928;27;105394;-57
2022/01/09 09:09:20;;;;;;;0.50;0.50;;;;;;;4.41;100.00;94925.63;5072314;27;101981;-57
2022/01/09 09:11:49;;;;;;;0.40;0.40;;;;;;;4.51;100.00;94928.38;5071055;27;105097;-57
2022/01/09 09:14:17;;;;;;;0.40;0.40;;;;;;;4.54;100.00;94942.88;5069933;27;105912;-57
2022/01/09 09:16:44;;;;;;;0.37;0.37;;;;;;;4.54;100.00;94943.66;5070911;27;101956;-57
2022/01/09 09:19:11;;;;;;;0.40;0.40;;;;;;;4.57;100.00;94937.09;5070939;27;105577;-57
2022/01/09 09:21:38;;;;;;;1.03;0.40;;;;;;;4.54;100.00;94943.66;5069947;27;105442;-57
2022/01/09 09:24:05;;;;;;;0.50;0.50;;;;;;;4.51;100.00;94951.25;5070768;27;101933;-57
2022/01/09 09:26:33;;;;;;;0.57;0.57;;;;;;;4.49;100.00;94948.09;5070807;27;104057;-57
2022/01/09 09:29:01;;;;;;;0.40;0.40;;;;;;;4.43;100.00;94968.28;5073507;27;101926;-57
2022/01/09 09:31:29;;;;;;;0.40;0.40;;;;;;;4.38;100.00;94988.50;5070560;27;104824;-57
2022/01/09 09:33:56;;;;;;;0.50;0.50;;;;;;;4.33;100.00;94973.44;5070082;27;107431;-57
2022/01/09 09:36:24;;;;;;;0.40;0.40;;;;;;;4.30;100.00;94979.19;5070655;27;101918;-57
2022/01/09 09:38:52;;;;;;;0.40;0.40;;;;;;;4.25;100.00;94980.97;5070316;27;105615;-57
2022/01/09 09:41:24;;;;;;;0.40;0.40;;;;;;;4.18;100.00;94994.31;5069705;27;105471;-57
2022/01/09 09:43:51;;;;;;;0.50;0.50;;;;;;;4.16;100.00;95006.09;5072066;27;101710;-57
2022/01/09 09:46:22;;;;;;;0.60;0.50;;;;;;;4.15;100.00;94994.00;5070417;27;105078;-56
2022/01/09 09:48:49;;;;;;;0.80;0.80;;;;;;;4.13;100.00;94998.69;5073265;27;105072;-57
2022/01/09 09:51:16;;;;;;;0.83;0.67;;;;;;;4.11;100.00;94995.53;5070391;27;105682;-59
2022/01/09 09:53:43;;;;;;;0.60;0.60;;;;;;;4.10;100.00;94993.94;5069849;27;105061;-58
2022/01/09 09:56:10;;;;;;;0.60;0.60;;;;;;;4.08;100.00;94996.00;5070121;27;101835;-54
2022/01/09 09:58:42;;;;;;;0.60;0.60;;;;;;;4.10;100.00;94996.56;5070287;27;105140;-50
2022/01/09 10:01:24;;;;;;;0.73;0.70;;;;;;;4.08;100.00;95007.31;5069633;27;105176;-54
2022/01/09 10:03:57;;;;;;;1.13;0.60;;;;;;;4.14;100.00;95016.09;5071618;27;101753;-52
2022/01/09 10:06:35;;;;;;;0.60;0.60;;;;;;;4.12;100.00;95010.25;5070562;27;105499;-54
2022/01/09 10:09:06;;;;;;;1.10;0.77;;;;;;;4.14;100.00;95013.47;5069451;27;105423;-54
2022/01/09 10:11:45;;;;;;;1.00;1.00;;;;;;;4.19;100.00;95026.66;5073625;27;101897;-53
2022/01/09 10:14:17;;;;;;;0.53;0.53;;;;;;;4.12;100.00;95023.41;5069376;27;104284;-58
2022/01/09 10:17:07;;;;;;;0.90;0.90;;;;;;;4.09;100.00;95029.19;5069954;27;101839;-57
2022/01/09 10:19:49;;;;;;;1.13;0.97;;;;;;;4.07;100.00;95041.75;5069376;27;105095;-59
2022/01/09 10:22:32;;;;;;;1.10;1.10;;;;;;;4.04;100.00;95037.00;5069332;27;103832;-60
2022/01/09 10:25:27;;;;;;;0.70;0.70;;;;;;;3.95;100.00;95030.53;5069943;27;101884;-67
2022/01/09 10:28:01;;;;;;;0.50;0.50;;;;;;;3.86;100.00;95045.13;5069811;27;105731;-62
2022/01/09 10:30:30;;;;;;;0.87;0.50;;;;;;;3.83;100.00;95056.94;5068875;27;105095;-59
2022/01/09 10:33:01;;;;;;;0.60;0.60;;;;;;;3.77;100.00;95052.63;5068865;27;101862;-59
2022/01/09 10:35:29;;;;;;;1.07;0.97;;;;;;;3.79;100.00;95073.44;5074094;27;102517;-58
2022/01/09 10:38:16;;;;;;;0.60;0.60;;;;;;;3.81;100.00;95047.69;5070129;27;104379;-53
2022/01/09 10:40:45;;;;;;;0.70;0.70;;;;;;;3.85;100.00;95059.31;5071113;27;102914;-55
2022/01/09 10:43:14;;;;;;;0.50;0.50;;;;;;;3.90;100.00;95051.50;5070309;27;102629;-55
2022/01/09 10:45:43;;;;;;;0.63;0.63;;;;;;;3.96;100.00;95063.69;5069494;27;101850;-55
2022/01/09 10:48:19;;;;;;;1.67;0.80;;;;;;;3.94;100.00;95063.16;5069280;27;103887;-53
2022/01/09 10:50:47;;;;;;;0.50;0.50;;;;;;;3.97;100.00;95054.75;5068832;27;105030;-55
2022/01/09 10:53:23;;;;;;;0.77;0.60;;;;;;;4.01;100.00;95061.94;5069434;27;102138;-56
2022/01/09 10:56:12;;;;;;;1.77;0.80;;;;;;;4.07;100.00;95074.13;5069209;27;106283;-58
2022/01/09 10:58:42;;;;;;;0.80;0.80;;;;;;;4.10;100.00;95070.22;5073416;27;102796;-58
2022/01/09 11:01:25;;;;;;;0.80;0.60;;;;;;;4.06;100.00;95072.53;5069270;27;104154;-60
2022/01/09 11:03:56;;;;;;;0.40;0.40;;;;;;;4.07;100.00;95068.06;5068594;27;105321;-59
2022/01/09 11:06:25;;;;;;;0.87;0.70;;;;;;;4.12;100.00;95068.13;5069244;27;101915;-59
2022/01/09 11:08:53;;;;;;;0.60;0.60;;;;;;;4.15;100.00;95065.81;5070348;27;102518;-59
2022/01/09 11:11:26;;;;;;;3.07;2.07;;;;;;;4.21;100.00;95077.22;5069784;27;103262;-58
2022/01/09 11:13:56;;;;;;;1.60;1.10;;;;;;;4.19;100.00;95079.25;5069078;27;101932;-57
2022/01/09 11:16:36;;;;;;;1.13;1.13;;;;;;;4.28;100.00;95062.03;5069108;27;105332;-57
2022/01/09 11:19:10;;;;;;;0.80;0.80;;;;;;;4.32;100.00;95071.81;5068052;27;105637;-52
2022/01/09 11:21:39;;;;;;;1.77;1.17;;;;;;;4.38;100.00;95070.06;5073954;27;101660;-51
2022/01/09 11:24:26;;;;;;;1.90;0.90;;;;;;;4.40;100.00;95074.03;5068133;27;105443;-56
2022/01/09 11:26:58;;;;;;;2.23;2.03;;;;;;;4.48;100.00;95080.72;5068908;27;102080;-50
2022/01/09 11:29:32;;;;;;;1.07;0.90;;;;;;;4.53;100.00;95078.16;5068944;27;105568;-50
2022/01/09 11:32:08;;;;;;;1.27;1.17;;;;;;;4.54;100.00;95080.53;5068230;27;105478;-52
2022/01/09 11:34:52;;;;;;;0.83;0.83;;;;;;;4.62;100.00;95071.41;5068638;27;101873;-56